Address 0x46a184d5e13b6186f7f50ae99b11cb5192ce5577 4

 
 
Txn Hash Method
Block
From
To
Value [Txn Fee]
0x7590818f6866a6efa0afb35bbb79288c0cec19dae5544166a31eb7929d67e65fClaim273842902022-04-21 2:09:3125 days 7 hrs ago0x46a184d5e13b6186f7f50ae99b11cb5192ce5577OUT 0x6cad6e1abc83068ea98924aef37e996ed02abf1c0 MATIC0.00786005776533.339092411
0x11a51ba6528324c3f5acf39ceac4f141a98dccbcba55a2ae7d2343121089e16bTransfer264652172022-03-28 15:28:1248 days 18 hrs ago0x46a184d5e13b6186f7f50ae99b11cb5192ce5577OUT USD Coin0 MATIC0.0014396431
0xb6e3cc483de2c5bda4e2ad4b9e336f41e323ed9865bdb83622a25b2b72101217Transfer264652092022-03-28 15:27:5248 days 18 hrs ago0x46a184d5e13b6186f7f50ae99b11cb5192ce5577OUT USD Coin0 MATIC0.0019697431
0x1ff6b76799fd96050a523eaa3e652f6de1ce3ddaf146912ea37977a9ac01a69eTransfer264645642022-03-28 15:03:3448 days 18 hrs ago0x46a184d5e13b6186f7f50ae99b11cb5192ce5577OUT USD Coin0 MATIC0.0019697431
0x588de3d1142bfd18faf0c34f3950d887e2c67b094632b792c08b20e93752a0b8Transfer264645582022-03-28 15:03:2248 days 18 hrs ago0x46a184d5e13b6186f7f50ae99b11cb5192ce5577OUT USD Coin0 MATIC0.00290060145.65
0xf8de3d99ad17613c0ebb2486fcfdd65df7dbfbe9d732be7a83e7d224e34951d5Mint262494222022-03-23 2:08:3454 days 7 hrs ago0x46a184d5e13b6186f7f50ae99b11cb5192ce5577OUT 0xac4255ec6885e50352a1957062ac418c2cc94e270 MATIC0.002804041723 34.00940853
0x49c4bc08b7833717e02e990d16373833ca6b868626d6c4e1e832bdf5fb285785Add Liquidity261895612022-03-21 13:28:1655 days 20 hrs ago0x46a184d5e13b6186f7f50ae99b11cb5192ce5577OUT 0x25fb92e505f752f730cad0bd4fa17ece4a3842660 MATIC0.006794707408 30.069999993
0x29ec34ec3971197b7b70f61ffe4afa04dc40bfeb4fc7337ec23560c3eecf2753Approve261895482022-03-21 13:27:5055 days 20 hrs ago0x46a184d5e13b6186f7f50ae99b11cb5192ce5577OUT Maker: Dai Stablecoin0 MATIC0.001587256253 30.481952937
0xbe108c1a9d35c32509ffab9ab7bb047297d355efc76e000944bada7ecec92b22Add Liquidity261890442022-03-21 13:08:2255 days 20 hrs ago0x46a184d5e13b6186f7f50ae99b11cb5192ce5577OUT 0x5c32143c8b198f392d01f8446b754c181224ac260 MATIC0.007063055434 30.452211291
0x1bf3be013ae2ce070383644f44708139ce3b06fcc4e82606b1f08ba310397b5aApprove261890252022-03-21 13:07:4455 days 20 hrs ago0x46a184d5e13b6186f7f50ae99b11cb5192ce5577OUT USD Coin0 MATIC0.001859537035 31.816326795
0xd6382d24d588fb9097a1def76f627e2fadf8f63719aaa1f03069290b2bbb35d2Transfer261790642022-03-21 7:09:2656 days 2 hrs ago0x46a184d5e13b6186f7f50ae99b11cb5192ce5577OUT Maker: Dai Stablecoin0 MATIC0.00177549431
0x667b82ff9450c570f1553c27e32b275234322c8b652159432fa083eef73897deTransfer261790522022-03-21 7:09:0256 days 2 hrs ago0x46a184d5e13b6186f7f50ae99b11cb5192ce5577OUT Maker: Dai Stablecoin0 MATIC0.00124576631
0x79174524fde35068ebcb07a20897cf87d2b6d52674301bba7965cf6ffce68ecfTransfer261790432022-03-21 7:08:4456 days 2 hrs ago0x46a184d5e13b6186f7f50ae99b11cb5192ce5577OUT Maker: Dai Stablecoin0 MATIC0.00177586631
0x6ad2e841c31ffe1977949fbd6f354389953cf5301c7d4500a78b5e679ae069bfTransfer261790342022-03-21 7:08:2656 days 2 hrs ago0x46a184d5e13b6186f7f50ae99b11cb5192ce5577OUT Maker: Dai Stablecoin0 MATIC0.00124576631
0x3ffc9f30a8fe38bae490f7f8eb96dfd92c8bc066cc9c136ecd4815dd69818d2aTransfer261717372022-03-21 2:36:0756 days 7 hrs ago0x46a184d5e13b6186f7f50ae99b11cb5192ce5577OUT USD Coin0 MATIC0.00144001231
0xb4c4ed6f76c51025aa7194d40c07c647327a8a50894abba557611dcabc88e7ecTransfer261717182022-03-21 2:35:2956 days 7 hrs ago0x46a184d5e13b6186f7f50ae99b11cb5192ce5577OUT Mapper: USDT Stablecoin0 MATIC0.00109758631
0x96b3491b3c50eae6ff25fcbeb068864020ee3dbbc977fc6d289eefb4f3a033ffTransfer261681822022-03-21 0:18:5756 days 9 hrs ago0x46a184d5e13b6186f7f50ae99b11cb5192ce5577OUT USD Coin0 MATIC0.002472767844 38.916711432
0x9e73055a1fc67599cab237ee93748b7e46df84c23c2ca87ab0e939e5522ea59eTransfer261681682022-03-21 0:18:2956 days 9 hrs ago0x46a184d5e13b6186f7f50ae99b11cb5192ce5577OUT Mapper: USDT Stablecoin0 MATIC0.002161897261 37.749210089
0x94a058c018bb6545a8929e4a013f86c6899a43c309eeccb8a6e2271c832a2322Transfer261681512022-03-21 0:17:5556 days 9 hrs ago0x46a184d5e13b6186f7f50ae99b11cb5192ce5577OUT USD Coin0 MATIC0.002472767844 38.916711437
0x539cdb6e41a65d55927e3d504fedff5acc52cb4423a35c53d6074a583bea573bTransfer261681442022-03-21 0:17:4156 days 9 hrs ago0x46a184d5e13b6186f7f50ae99b11cb5192ce5577OUT USD Coin0 MATIC0.0025492452 40.120321068
0x38e951261f2c404e7605ed7827ae073f1fa2ee124fb23eef65748015c99192c0Transfer261672552022-03-20 23:43:3956 days 9 hrs ago0x46a184d5e13b6186f7f50ae99b11cb5192ce5577OUT 0x3ca3218d6c52b640b0857cc19b69aa9427bc842c0 MATIC0.00195509946335.737647172
0x022cd9cd7361bf3f212a5be01ee16f190359bb292ba3958dd98ec2ac5c5d55e2Exit261668932022-03-20 23:30:2356 days 10 hrs ago0x46a184d5e13b6186f7f50ae99b11cb5192ce5577OUT 0x07932e9a5ab8800922b2688fb1fa0daad83417720 MATIC0.004239528052 37.718556684
0x281553c8cac3e771a058dcc5cffe3d809768244117937bb8082065a72879e0ccAdd Liquidity261665882022-03-20 23:17:4556 days 10 hrs ago0x46a184d5e13b6186f7f50ae99b11cb5192ce5577OUT 0x3d4cc8a61c7528fd86c55cfe061a78dcba48edd10 MATIC0.008336188674 37.554121013
0x7a633003f138cc6892d8def49393f36c477e774c89f0cfb98cdbd2b5f4525113Approve261665752022-03-20 23:17:1956 days 10 hrs ago0x46a184d5e13b6186f7f50ae99b11cb5192ce5577OUT Polygon: WMATIC Token0 MATIC0.001796287167 38.715588673
0x741f074059d0e3a8133938e844305b742a73f42e96c39516748752459142b4cdTransfer261501132022-03-20 13:17:1456 days 20 hrs ago0x46a184d5e13b6186f7f50ae99b11cb5192ce5577OUT Polygon: WMATIC Token0 MATIC0.00107033731
[ Download CSV Export 
Latest 7 internal transactions
Parent Txn Hash Block From To Value
0xd74224a04f5af5edf16a5dfde82e088d3f3a4a009f27ca101a0399eff53c215b280238922022-05-07 7:53:439 days 1 hr ago Disperse.app: Matic Network0x46a184d5e13b6186f7f50ae99b11cb5192ce55770.001 MATIC
0x61b8dfd0f0270a90dbf1391bb5cb0fddc3c24912fd89b546078b7b920a3bb4a9251012282022-02-19 2:28:2286 days 7 hrs ago 0xf2e4209afa4c3c9eaa3fb8e12eed25d8f328171c0x46a184d5e13b6186f7f50ae99b11cb5192ce5577107.101500038587264219 MATIC
0xa047c646b607f5098e3b9607c64f99c53c6ae26b256f10b14937f752a9d93df9228684052021-12-23 12:56:46143 days 20 hrs ago Aave: WETH Gateway V20x46a184d5e13b6186f7f50ae99b11cb5192ce55770.005000000061970774 MATIC
0x1b0b794d0121dc3d181640d221f4633c6685a11706585c528ee8dbd42f00223d220732052021-12-03 3:12:52164 days 6 hrs ago SuperFluid: MATICx Token0x46a184d5e13b6186f7f50ae99b11cb5192ce55772.9 MATIC
0x559702b973008e3a7b3b985c70ce14c1b5aa0e117701c8499a9470c69dc8e6fd220534572021-12-02 15:14:40164 days 18 hrs ago SushiSwap: Router0x46a184d5e13b6186f7f50ae99b11cb5192ce55770.000000017626868932 MATIC
0xa3c0033acf93dad8fbca702eb5f7c0782e97b3dfc18c75a0e2ffa7c80d7d8693217298132021-11-24 2:49:46173 days 6 hrs ago 0xc590175e458b83680867afd273527ff58f74c02b0x46a184d5e13b6186f7f50ae99b11cb5192ce55771.170604855247055156 MATIC
0x2c425febacccb4269107d00d28faa4b4bd637282b40fab2f6127f1f2c374d8c0217090072021-11-23 14:02:54173 days 19 hrs ago 0x: Exchange Proxy Flash Wallet0x46a184d5e13b6186f7f50ae99b11cb5192ce55772.504887907157850528 MATIC
[ Download CSV Export 
Loading

Contract Name:
0 MATIC

Compiler Version
0

Optimization Enabled:
0 MATIC

Other Settings:
-NA-
Block Transaction Gas Used Reward
Age Block Fee Address BC Fee Address Voting Power Jailed Incoming
Block Uncle Number Difficulty Gas Used Reward
Loading
Loading
Make sure to use the "Vote Down" button for any spammy posts, and the "Vote Up" for interesting conversations.